sensor_id;sensor_type;location;lat;lon;timestamp;P1;durP1;ratioP1;P2;durP2;ratioP2
76576;SDS011;65441;44.748;37.600;2023-08-01T00:02:04;8.88;;;2.85;;
76576;SDS011;65441;44.748;37.600;2023-08-01T00:04:32;5.60;;;2.60;;
76576;SDS011;65441;44.748;37.600;2023-08-01T00:07:00;7.32;;;2.97;;
76576;SDS011;65441;44.748;37.600;2023-08-01T00:09:28;9.80;;;3.33;;
76576;SDS011;65441;44.748;37.600;2023-08-01T00:11:56;9.65;;;3.05;;
76576;SDS011;65441;44.748;37.600;2023-08-01T00:14:24;8.60;;;2.97;;
76576;SDS011;65441;44.748;37.600;2023-08-01T00:16:52;6.97;;;3.05;;
76576;SDS011;65441;44.748;37.600;2023-08-01T00:19:22;6.40;;;2.90;;
76576;SDS011;65441;44.748;37.600;2023-08-01T00:21:50;7.68;;;3.00;;
76576;SDS011;65441;44.748;37.600;2023-08-01T00:24:18;9.77;;;3.33;;
76576;SDS011;65441;44.748;37.600;2023-08-01T00:26:46;9.10;;;3.55;;
76576;SDS011;65441;44.748;37.600;2023-08-01T00:29:14;7.60;;;3.15;;
76576;SDS011;65441;44.748;37.600;2023-08-01T00:31:42;6.40;;;3.08;;
76576;SDS011;65441;44.748;37.600;2023-08-01T00:34:10;7.25;;;2.95;;
76576;SDS011;65441;44.748;37.600;2023-08-01T00:36:40;8.30;;;2.88;;
76576;SDS011;65441;44.748;37.600;2023-08-01T00:39:08;7.65;;;3.22;;
76576;SDS011;65441;44.748;37.600;2023-08-01T00:41:36;5.70;;;2.63;;
76576;SDS011;65441;44.748;37.600;2023-08-01T00:44:04;11.50;;;3.50;;
76576;SDS011;65441;44.748;37.600;2023-08-01T00:46:32;7.07;;;2.88;;
76576;SDS011;65441;44.748;37.600;2023-08-01T00:49:01;6.60;;;3.13;;
76576;SDS011;65441;44.748;37.600;2023-08-01T00:51:30;9.23;;;2.97;;
76576;SDS011;65441;44.748;37.600;2023-08-01T00:54:01;6.82;;;2.97;;
76576;SDS011;65441;44.748;37.600;2023-08-01T00:56:30;6.13;;;2.78;;
76576;SDS011;65441;44.748;37.600;2023-08-01T00:58:58;7.95;;;3.40;;
76576;SDS011;65441;44.748;37.600;2023-08-01T01:01:27;7.13;;;2.83;;
76576;SDS011;65441;44.748;37.600;2023-08-01T01:03:55;8.50;;;3.20;;
76576;SDS011;65441;44.748;37.600;2023-08-01T01:06:24;8.52;;;3.20;;
76576;SDS011;65441;44.748;37.600;2023-08-01T01:08:57;8.55;;;4.03;;
76576;SDS011;65441;44.748;37.600;2023-08-01T01:11:27;7.55;;;3.45;;
76576;SDS011;65441;44.748;37.600;2023-08-01T01:13:55;8.15;;;3.63;;
76576;SDS011;65441;44.748;37.600;2023-08-01T01:16:23;10.63;;;4.07;;
76576;SDS011;65441;44.748;37.600;2023-08-01T01:18:51;7.72;;;3.80;;
76576;SDS011;65441;44.748;37.600;2023-08-01T01:21:21;9.63;;;3.78;;
76576;SDS011;65441;44.748;37.600;2023-08-01T01:23:52;7.97;;;3.42;;
76576;SDS011;65441;44.748;37.600;2023-08-01T01:26:20;7.75;;;3.40;;
76576;SDS011;65441;44.748;37.600;2023-08-01T01:28:48;8.75;;;3.85;;
76576;SDS011;65441;44.748;37.600;2023-08-01T01:31:18;8.57;;;3.58;;
76576;SDS011;65441;44.748;37.600;2023-08-01T01:33:47;8.05;;;3.67;;
76576;SDS011;65441;44.748;37.600;2023-08-01T01:36:15;9.55;;;3.80;;
76576;SDS011;65441;44.748;37.600;2023-08-01T01:38:45;8.45;;;3.53;;
76576;SDS011;65441;44.748;37.600;2023-08-01T01:41:14;11.07;;;3.45;;
76576;SDS011;65441;44.748;37.600;2023-08-01T01:43:42;9.68;;;3.38;;
76576;SDS011;65441;44.748;37.600;2023-08-01T01:46:10;8.07;;;3.50;;
76576;SDS011;65441;44.748;37.600;2023-08-01T01:48:38;7.63;;;3.80;;
76576;SDS011;65441;44.748;37.600;2023-08-01T01:51:08;7.75;;;3.45;;
76576;SDS011;65441;44.748;37.600;2023-08-01T01:53:36;8.40;;;3.50;;
76576;SDS011;65441;44.748;37.600;2023-08-01T01:56:06;7.65;;;3.20;;
76576;SDS011;65441;44.748;37.600;2023-08-01T01:58:34;15.10;;;3.60;;
76576;SDS011;65441;44.748;37.600;2023-08-01T02:01:02;8.57;;;3.50;;
76576;SDS011;65441;44.748;37.600;2023-08-01T02:03:30;7.25;;;3.30;;
76576;SDS011;65441;44.748;37.600;2023-08-01T02:05:58;9.13;;;3.70;;
76576;SDS011;65441;44.748;37.600;2023-08-01T02:08:26;8.30;;;3.65;;
76576;SDS011;65441;44.748;37.600;2023-08-01T02:10:54;9.95;;;3.65;;
76576;SDS011;65441;44.748;37.600;2023-08-01T02:13:25;8.05;;;3.55;;
76576;SDS011;65441;44.748;37.600;2023-08-01T02:15:54;9.13;;;3.47;;
76576;SDS011;65441;44.748;37.600;2023-08-01T02:18:23;7.53;;;3.55;;
76576;SDS011;65441;44.748;37.600;2023-08-01T02:20:51;7.53;;;3.38;;
76576;SDS011;65441;44.748;37.600;2023-08-01T02:23:19;9.88;;;3.78;;
76576;SDS011;65441;44.748;37.600;2023-08-01T02:25:47;7.03;;;3.67;;
76576;SDS011;65441;44.748;37.600;2023-08-01T02:28:16;9.98;;;3.67;;
76576;SDS011;65441;44.748;37.600;2023-08-01T02:30:45;10.32;;;3.75;;
76576;SDS011;65441;44.748;37.600;2023-08-01T02:33:13;9.45;;;3.70;;
76576;SDS011;65441;44.748;37.600;2023-08-01T02:35:41;10.68;;;3.78;;
76576;SDS011;65441;44.748;37.600;2023-08-01T02:38:09;7.38;;;3.70;;
76576;SDS011;65441;44.748;37.600;2023-08-01T02:40:37;8.27;;;3.63;;
76576;SDS011;65441;44.748;37.600;2023-08-01T02:43:06;10.70;;;3.58;;
76576;SDS011;65441;44.748;37.600;2023-08-01T02:45:34;9.50;;;3.72;;
76576;SDS011;65441;44.748;37.600;2023-08-01T02:48:03;6.50;;;3.30;;
76576;SDS011;65441;44.748;37.600;2023-08-01T02:50:31;8.90;;;3.67;;
76576;SDS011;65441;44.748;37.600;2023-08-01T02:53:00;11.48;;;3.83;;
76576;SDS011;65441;44.748;37.600;2023-08-01T02:55:28;7.15;;;3.72;;
76576;SDS011;65441;44.748;37.600;2023-08-01T02:57:56;9.35;;;3.53;;
76576;SDS011;65441;44.748;37.600;2023-08-01T03:00:24;11.88;;;3.30;;
76576;SDS011;65441;44.748;37.600;2023-08-01T03:02:52;8.73;;;3.97;;
76576;SDS011;65441;44.748;37.600;2023-08-01T03:05:21;7.53;;;2.90;;
76576;SDS011;65441;44.748;37.600;2023-08-01T03:07:49;7.55;;;2.85;;
76576;SDS011;65441;44.748;37.600;2023-08-01T03:10:18;9.35;;;3.25;;
76576;SDS011;65441;44.748;37.600;2023-08-01T03:12:46;6.43;;;2.67;;
76576;SDS011;65441;44.748;37.600;2023-08-01T03:15:14;6.25;;;2.75;;
76576;SDS011;65441;44.748;37.600;2023-08-01T03:17:42;6.63;;;2.70;;
76576;SDS011;65441;44.748;37.600;2023-08-01T03:20:10;5.32;;;2.60;;
76576;SDS011;65441;44.748;37.600;2023-08-01T03:22:40;7.75;;;2.63;;
76576;SDS011;65441;44.748;37.600;2023-08-01T03:25:08;6.63;;;2.60;;
76576;SDS011;65441;44.748;37.600;2023-08-01T03:27:36;7.43;;;2.63;;
76576;SDS011;65441;44.748;37.600;2023-08-01T03:30:05;6.47;;;2.83;;
76576;SDS011;65441;44.748;37.600;2023-08-01T03:32:34;5.82;;;2.20;;
76576;SDS011;65441;44.748;37.600;2023-08-01T03:35:04;8.45;;;2.78;;
76576;SDS011;65441;44.748;37.600;2023-08-01T03:37:32;8.48;;;2.70;;
76576;SDS011;65441;44.748;37.600;2023-08-01T03:40:02;7.00;;;2.60;;
76576;SDS011;65441;44.748;37.600;2023-08-01T03:42:31;7.97;;;2.67;;
76576;SDS011;65441;44.748;37.600;2023-08-01T03:44:59;7.85;;;2.42;;
76576;SDS011;65441;44.748;37.600;2023-08-01T03:47:27;7.43;;;2.63;;
76576;SDS011;65441;44.748;37.600;2023-08-01T03:49:55;10.80;;;2.50;;
76576;SDS011;65441;44.748;37.600;2023-08-01T03:52:24;11.20;;;3.67;;
76576;SDS011;65441;44.748;37.600;2023-08-01T03:54:54;7.25;;;2.70;;
76576;SDS011;65441;44.748;37.600;2023-08-01T03:57:31;7.18;;;2.88;;
76576;SDS011;65441;44.748;37.600;2023-08-01T04:00:02;7.10;;;2.28;;
76576;SDS011;65441;44.748;37.600;2023-08-01T04:02:38;8.10;;;2.85;;
76576;SDS011;65441;44.748;37.600;2023-08-01T04:05:07;7.05;;;2.65;;
76576;SDS011;65441;44.748;37.600;2023-08-01T04:07:36;6.57;;;2.40;;
76576;SDS011;65441;44.748;37.600;2023-08-01T04:10:05;5.65;;;1.73;;
76576;SDS011;65441;44.748;37.600;2023-08-01T04:12:35;6.70;;;1.90;;
76576;SDS011;65441;44.748;37.600;2023-08-01T04:15:03;7.47;;;1.90;;
76576;SDS011;65441;44.748;37.600;2023-08-01T04:17:32;7.55;;;2.00;;
76576;SDS011;65441;44.748;37.600;2023-08-01T04:20:00;6.18;;;1.58;;
76576;SDS011;65441;44.748;37.600;2023-08-01T04:22:28;5.30;;;1.60;;
76576;SDS011;65441;44.748;37.600;2023-08-01T04:24:56;5.65;;;1.70;;
76576;SDS011;65441;44.748;37.600;2023-08-01T04:27:25;8.50;;;1.87;;
76576;SDS011;65441;44.748;37.600;2023-08-01T04:29:54;5.22;;;1.55;;
76576;SDS011;65441;44.748;37.600;2023-08-01T04:32:23;5.03;;;1.63;;
76576;SDS011;65441;44.748;37.600;2023-08-01T04:34:51;5.53;;;1.67;;
76576;SDS011;65441;44.748;37.600;2023-08-01T04:37:19;4.43;;;1.65;;
76576;SDS011;65441;44.748;37.600;2023-08-01T04:39:48;4.97;;;1.80;;
76576;SDS011;65441;44.748;37.600;2023-08-01T04:42:17;4.13;;;1.50;;
76576;SDS011;65441;44.748;37.600;2023-08-01T04:44:45;4.65;;;1.60;;
76576;SDS011;65441;44.748;37.600;2023-08-01T04:47:15;5.00;;;1.65;;
76576;SDS011;65441;44.748;37.600;2023-08-01T04:49:43;4.93;;;1.63;;
76576;SDS011;65441;44.748;37.600;2023-08-01T04:52:11;4.50;;;1.20;;
76576;SDS011;65441;44.748;37.600;2023-08-01T04:54:39;4.78;;;1.50;;
76576;SDS011;65441;44.748;37.600;2023-08-01T04:57:07;4.68;;;1.40;;
76576;SDS011;65441;44.748;37.600;2023-08-01T04:59:35;4.20;;;1.52;;
76576;SDS011;65441;44.748;37.600;2023-08-01T05:02:04;7.28;;;1.77;;
76576;SDS011;65441;44.748;37.600;2023-08-01T05:04:33;5.40;;;1.45;;
76576;SDS011;65441;44.748;37.600;2023-08-01T05:07:01;4.85;;;1.35;;
76576;SDS011;65441;44.748;37.600;2023-08-01T05:09:32;4.78;;;1.70;;
76576;SDS011;65441;44.748;37.600;2023-08-01T05:12:00;3.53;;;1.40;;
76576;SDS011;65441;44.748;37.600;2023-08-01T05:14:28;5.82;;;1.30;;
76576;SDS011;65441;44.748;37.600;2023-08-01T05:16:56;4.95;;;1.55;;
76576;SDS011;65441;44.748;37.600;2023-08-01T05:19:24;5.05;;;1.42;;
76576;SDS011;65441;44.748;37.600;2023-08-01T05:21:54;4.85;;;1.40;;
76576;SDS011;65441;44.748;37.600;2023-08-01T05:24:22;8.48;;;1.60;;
76576;SDS011;65441;44.748;37.600;2023-08-01T05:26:50;4.95;;;1.30;;
76576;SDS011;65441;44.748;37.600;2023-08-01T05:29:18;6.53;;;1.20;;
76576;SDS011;65441;44.748;37.600;2023-08-01T05:31:47;3.80;;;1.35;;
76576;SDS011;65441;44.748;37.600;2023-08-01T05:34:15;5.95;;;1.30;;
76576;SDS011;65441;44.748;37.600;2023-08-01T05:36:43;4.20;;;1.30;;
76576;SDS011;65441;44.748;37.600;2023-08-01T05:39:12;5.25;;;1.40;;
76576;SDS011;65441;44.748;37.600;2023-08-01T05:41:41;2.45;;;0.90;;
76576;SDS011;65441;44.748;37.600;2023-08-01T05:44:09;3.78;;;1.33;;
76576;SDS011;65441;44.748;37.600;2023-08-01T05:46:37;3.38;;;1.20;;
76576;SDS011;65441;44.748;37.600;2023-08-01T05:49:05;4.78;;;1.60;;
76576;SDS011;65441;44.748;37.600;2023-08-01T05:51:35;7.63;;;1.50;;
76576;SDS011;65441;44.748;37.600;2023-08-01T05:54:03;5.25;;;1.30;;
76576;SDS011;65441;44.748;37.600;2023-08-01T05:56:33;4.93;;;1.33;;
76576;SDS011;65441;44.748;37.600;2023-08-01T05:59:01;3.75;;;1.35;;
76576;SDS011;65441;44.748;37.600;2023-08-01T06:01:29;5.05;;;1.20;;
76576;SDS011;65441;44.748;37.600;2023-08-01T06:03:57;5.07;;;1.10;;
76576;SDS011;65441;44.748;37.600;2023-08-01T06:06:26;3.90;;;1.20;;
76576;SDS011;65441;44.748;37.600;2023-08-01T06:08:54;6.28;;;1.38;;
76576;SDS011;65441;44.748;37.600;2023-08-01T06:11:22;4.43;;;1.10;;
76576;SDS011;65441;44.748;37.600;2023-08-01T06:13:53;6.38;;;1.40;;
76576;SDS011;65441;44.748;37.600;2023-08-01T06:16:23;5.65;;;1.27;;
76576;SDS011;65441;44.748;37.600;2023-08-01T06:18:51;4.80;;;1.13;;
76576;SDS011;65441;44.748;37.600;2023-08-01T06:21:20;4.38;;;1.27;;
76576;SDS011;65441;44.748;37.600;2023-08-01T06:23:48;8.43;;;1.73;;
76576;SDS011;65441;44.748;37.600;2023-08-01T06:26:16;5.53;;;1.45;;
76576;SDS011;65441;44.748;37.600;2023-08-01T06:28:44;3.75;;;1.20;;
76576;SDS011;65441;44.748;37.600;2023-08-01T06:31:14;5.85;;;1.50;;
76576;SDS011;65441;44.748;37.600;2023-08-01T06:33:42;3.78;;;1.35;;
76576;SDS011;65441;44.748;37.600;2023-08-01T06:36:10;5.22;;;1.58;;
76576;SDS011;65441;44.748;37.600;2023-08-01T06:38:39;3.55;;;1.30;;
76576;SDS011;65441;44.748;37.600;2023-08-01T06:41:07;3.67;;;1.08;;
76576;SDS011;65441;44.748;37.600;2023-08-01T06:43:35;4.38;;;1.38;;
76576;SDS011;65441;44.748;37.600;2023-08-01T06:46:04;6.90;;;1.60;;
76576;SDS011;65441;44.748;37.600;2023-08-01T06:48:34;4.68;;;1.35;;
76576;SDS011;65441;44.748;37.600;2023-08-01T06:51:05;3.10;;;1.13;;
76576;SDS011;65441;44.748;37.600;2023-08-01T06:53:33;3.83;;;1.40;;
76576;SDS011;65441;44.748;37.600;2023-08-01T06:56:03;4.78;;;1.42;;
76576;SDS011;65441;44.748;37.600;2023-08-01T06:58:31;3.88;;;1.10;;
76576;SDS011;65441;44.748;37.600;2023-08-01T07:01:03;5.38;;;1.40;;
76576;SDS011;65441;44.748;37.600;2023-08-01T07:03:31;4.38;;;1.40;;
76576;SDS011;65441;44.748;37.600;2023-08-01T07:06:01;4.65;;;1.52;;
76576;SDS011;65441;44.748;37.600;2023-08-01T07:08:32;5.85;;;1.33;;
76576;SDS011;65441;44.748;37.600;2023-08-01T07:11:00;7.00;;;1.70;;
76576;SDS011;65441;44.748;37.600;2023-08-01T07:13:33;4.80;;;1.30;;
76576;SDS011;65441;44.748;37.600;2023-08-01T07:16:01;5.97;;;1.40;;
76576;SDS011;65441;44.748;37.600;2023-08-01T07:18:29;6.18;;;1.33;;
76576;SDS011;65441;44.748;37.600;2023-08-01T07:21:02;5.35;;;1.73;;
76576;SDS011;65441;44.748;37.600;2023-08-01T07:23:33;5.20;;;1.50;;
76576;SDS011;65441;44.748;37.600;2023-08-01T07:26:02;6.55;;;1.40;;
76576;SDS011;65441;44.748;37.600;2023-08-01T07:28:30;5.85;;;1.48;;
76576;SDS011;65441;44.748;37.600;2023-08-01T07:30:59;3.72;;;1.40;;
76576;SDS011;65441;44.748;37.600;2023-08-01T07:33:27;6.95;;;1.55;;
76576;SDS011;65441;44.748;37.600;2023-08-01T07:35:56;5.55;;;1.77;;
76576;SDS011;65441;44.748;37.600;2023-08-01T07:38:26;7.32;;;1.58;;
76576;SDS011;65441;44.748;37.600;2023-08-01T07:40:56;6.38;;;1.30;;
76576;SDS011;65441;44.748;37.600;2023-08-01T07:43:25;5.65;;;1.70;;
76576;SDS011;65441;44.748;37.600;2023-08-01T07:45:55;6.35;;;1.70;;
76576;SDS011;65441;44.748;37.600;2023-08-01T07:48:25;5.53;;;1.70;;
76576;SDS011;65441;44.748;37.600;2023-08-01T07:50:55;4.88;;;1.42;;
76576;SDS011;65441;44.748;37.600;2023-08-01T07:53:23;7.68;;;1.63;;
76576;SDS011;65441;44.748;37.600;2023-08-01T07:55:54;5.15;;;1.40;;
76576;SDS011;65441;44.748;37.600;2023-08-01T07:58:23;4.07;;;1.20;;
76576;SDS011;65441;44.748;37.600;2023-08-01T08:00:51;4.35;;;1.50;;
76576;SDS011;65441;44.748;37.600;2023-08-01T08:03:19;8.85;;;2.30;;
76576;SDS011;65441;44.748;37.600;2023-08-01T08:05:52;4.43;;;1.40;;
76576;SDS011;65441;44.748;37.600;2023-08-01T08:08:20;4.75;;;1.70;;
76576;SDS011;65441;44.748;37.600;2023-08-01T08:10:54;4.22;;;1.70;;
76576;SDS011;65441;44.748;37.600;2023-08-01T08:13:23;5.15;;;1.65;;
76576;SDS011;65441;44.748;37.600;2023-08-01T08:15:54;6.03;;;1.80;;
76576;SDS011;65441;44.748;37.600;2023-08-01T08:18:23;5.22;;;1.80;;
76576;SDS011;65441;44.748;37.600;2023-08-01T08:20:52;4.90;;;1.80;;
76576;SDS011;65441;44.748;37.600;2023-08-01T08:23:21;4.72;;;1.75;;
76576;SDS011;65441;44.748;37.600;2023-08-01T08:25:49;3.75;;;1.52;;
76576;SDS011;65441;44.748;37.600;2023-08-01T08:28:28;5.47;;;1.60;;
76576;SDS011;65441;44.748;37.600;2023-08-01T08:30:58;5.03;;;1.80;;
76576;SDS011;65441;44.748;37.600;2023-08-01T08:33:28;5.28;;;1.63;;
76576;SDS011;65441;44.748;37.600;2023-08-01T08:35:57;3.92;;;1.60;;
76576;SDS011;65441;44.748;37.600;2023-08-01T08:38:25;4.95;;;1.67;;
76576;SDS011;65441;44.748;37.600;2023-08-01T08:41:01;4.97;;;1.60;;
76576;SDS011;65441;44.748;37.600;2023-08-01T08:43:37;5.97;;;1.80;;
76576;SDS011;65441;44.748;37.600;2023-08-01T08:46:05;5.30;;;1.80;;
76576;SDS011;65441;44.748;37.600;2023-08-01T08:48:35;3.92;;;1.70;;
76576;SDS011;65441;44.748;37.600;2023-08-01T08:51:07;4.45;;;1.58;;
76576;SDS011;65441;44.748;37.600;2023-08-01T08:53:39;5.13;;;1.60;;
76576;SDS011;65441;44.748;37.600;2023-08-01T08:56:08;5.13;;;1.60;;
76576;SDS011;65441;44.748;37.600;2023-08-01T08:58:38;7.95;;;1.60;;
76576;SDS011;65441;44.748;37.600;2023-08-01T09:01:09;4.57;;;1.73;;
76576;SDS011;65441;44.748;37.600;2023-08-01T09:03:40;4.93;;;1.60;;
76576;SDS011;65441;44.748;37.600;2023-08-01T09:06:12;5.03;;;1.63;;
76576;SDS011;65441;44.748;37.600;2023-08-01T09:08:44;7.65;;;1.95;;
76576;SDS011;65441;44.748;37.600;2023-08-01T09:13:55;4.28;;;1.38;;
76576;SDS011;65441;44.748;37.600;2023-08-01T09:16:24;5.88;;;1.52;;
76576;SDS011;65441;44.748;37.600;2023-08-01T09:18:54;4.63;;;1.42;;
76576;SDS011;65441;44.748;37.600;2023-08-01T09:21:25;4.88;;;1.50;;
76576;SDS011;65441;44.748;37.600;2023-08-01T09:23:54;7.75;;;2.10;;
76576;SDS011;65441;44.748;37.600;2023-08-01T09:26:24;5.07;;;1.30;;
76576;SDS011;65441;44.748;37.600;2023-08-01T09:28:58;3.65;;;1.27;;
76576;SDS011;65441;44.748;37.600;2023-08-01T09:33:56;3.80;;;1.35;;
76576;SDS011;65441;44.748;37.600;2023-08-01T09:36:25;5.47;;;1.60;;
76576;SDS011;65441;44.748;37.600;2023-08-01T09:39:00;3.65;;;1.48;;
76576;SDS011;65441;44.748;37.600;2023-08-01T09:41:30;6.55;;;1.55;;
76576;SDS011;65441;44.748;37.600;2023-08-01T09:44:01;6.20;;;1.40;;
76576;SDS011;65441;44.748;37.600;2023-08-01T09:46:29;6.25;;;1.80;;
76576;SDS011;65441;44.748;37.600;2023-08-01T09:49:06;5.15;;;1.60;;
76576;SDS011;65441;44.748;37.600;2023-08-01T09:51:45;5.50;;;1.73;;
76576;SDS011;65441;44.748;37.600;2023-08-01T09:54:15;5.65;;;2.20;;
76576;SDS011;65441;44.748;37.600;2023-08-01T09:56:44;8.27;;;1.70;;
76576;SDS011;65441;44.748;37.600;2023-08-01T09:59:14;4.10;;;1.30;;
76576;SDS011;65441;44.748;37.600;2023-08-01T10:01:48;5.82;;;1.50;;
76576;SDS011;65441;44.748;37.600;2023-08-01T10:04:20;5.70;;;1.50;;
76576;SDS011;65441;44.748;37.600;2023-08-01T10:06:53;6.40;;;2.15;;
76576;SDS011;65441;44.748;37.600;2023-08-01T10:09:24;5.45;;;1.50;;
76576;SDS011;65441;44.748;37.600;2023-08-01T10:11:53;7.43;;;1.45;;
76576;SDS011;65441;44.748;37.600;2023-08-01T10:14:26;6.28;;;1.35;;
76576;SDS011;65441;44.748;37.600;2023-08-01T10:16:55;6.13;;;1.65;;
76576;SDS011;65441;44.748;37.600;2023-08-01T10:19:24;5.22;;;1.60;;
76576;SDS011;65441;44.748;37.600;2023-08-01T10:21:53;4.43;;;1.45;;
76576;SDS011;65441;44.748;37.600;2023-08-01T10:24:28;4.72;;;1.50;;
76576;SDS011;65441;44.748;37.600;2023-08-01T10:26:58;4.07;;;1.50;;
76576;SDS011;65441;44.748;37.600;2023-08-01T10:29:42;4.20;;;1.67;;
76576;SDS011;65441;44.748;37.600;2023-08-01T10:32:12;6.32;;;1.60;;
76576;SDS011;65441;44.748;37.600;2023-08-01T10:34:51;6.88;;;1.65;;
76576;SDS011;65441;44.748;37.600;2023-08-01T10:37:22;3.47;;;1.30;;
76576;SDS011;65441;44.748;37.600;2023-08-01T10:39:56;5.47;;;1.55;;
76576;SDS011;65441;44.748;37.600;2023-08-01T10:45:06;5.07;;;1.40;;
76576;SDS011;65441;44.748;37.600;2023-08-01T10:48:05;4.65;;;1.50;;
76576;SDS011;65441;44.748;37.600;2023-08-01T10:50:35;6.70;;;1.33;;
76576;SDS011;65441;44.748;37.600;2023-08-01T10:53:07;6.75;;;1.77;;
76576;SDS011;65441;44.748;37.600;2023-08-01T10:55:41;4.72;;;1.30;;
76576;SDS011;65441;44.748;37.600;2023-08-01T10:58:14;5.25;;;1.60;;
76576;SDS011;65441;44.748;37.600;2023-08-01T11:00:58;3.75;;;1.40;;
76576;SDS011;65441;44.748;37.600;2023-08-01T11:03:33;5.75;;;1.50;;
76576;SDS011;65441;44.748;37.600;2023-08-01T11:06:05;4.20;;;1.30;;
76576;SDS011;65441;44.748;37.600;2023-08-01T11:08:36;7.70;;;1.40;;
76576;SDS011;65441;44.748;37.600;2023-08-01T11:11:11;7.70;;;1.52;;
76576;SDS011;65441;44.748;37.600;2023-08-01T11:13:41;4.45;;;1.50;;
76576;SDS011;65441;44.748;37.600;2023-08-01T11:16:24;5.25;;;1.60;;
76576;SDS011;65441;44.748;37.600;2023-08-01T11:18:53;5.53;;;1.38;;
76576;SDS011;65441;44.748;37.600;2023-08-01T11:21:29;9.43;;;1.48;;
76576;SDS011;65441;44.748;37.600;2023-08-01T11:24:05;6.03;;;1.40;;
76576;SDS011;65441;44.748;37.600;2023-08-01T11:26:36;5.68;;;1.75;;
76576;SDS011;65441;44.748;37.600;2023-08-01T11:29:10;4.95;;;1.48;;
76576;SDS011;65441;44.748;37.600;2023-08-01T11:31:51;3.53;;;1.23;;
76576;SDS011;65441;44.748;37.600;2023-08-01T11:34:21;4.68;;;1.52;;
76576;SDS011;65441;44.748;37.600;2023-08-01T11:36:51;3.80;;;1.20;;
76576;SDS011;65441;44.748;37.600;2023-08-01T11:39:23;4.28;;;1.52;;
76576;SDS011;65441;44.748;37.600;2023-08-01T11:41:54;4.32;;;1.40;;
76576;SDS011;65441;44.748;37.600;2023-08-01T11:44:23;4.05;;;1.40;;
76576;SDS011;65441;44.748;37.600;2023-08-01T11:46:53;4.38;;;1.42;;
76576;SDS011;65441;44.748;37.600;2023-08-01T11:49:24;7.22;;;1.35;;
76576;SDS011;65441;44.748;37.600;2023-08-01T11:51:55;4.72;;;1.30;;
76576;SDS011;65441;44.748;37.600;2023-08-01T11:54:26;9.07;;;1.40;;
76576;SDS011;65441;44.748;37.600;2023-08-01T11:57:01;5.90;;;1.23;;
76576;SDS011;65441;44.748;37.600;2023-08-01T11:59:34;4.18;;;1.27;;
76576;SDS011;65441;44.748;37.600;2023-08-01T12:02:23;6.82;;;1.20;;
76576;SDS011;65441;44.748;37.600;2023-08-01T12:04:56;4.03;;;0.95;;
76576;SDS011;65441;44.748;37.600;2023-08-01T12:07:29;5.95;;;1.25;;
76576;SDS011;65441;44.748;37.600;2023-08-01T12:09:59;4.03;;;1.50;;
76576;SDS011;65441;44.748;37.600;2023-08-01T12:12:31;4.18;;;1.30;;
76576;SDS011;65441;44.748;37.600;2023-08-01T12:15:15;3.28;;;1.30;;
76576;SDS011;65441;44.748;37.600;2023-08-01T12:17:50;6.68;;;1.20;;
76576;SDS011;65441;44.748;37.600;2023-08-01T12:20:18;3.25;;;1.20;;
76576;SDS011;65441;44.748;37.600;2023-08-01T12:22:49;3.08;;;1.10;;
76576;SDS011;65441;44.748;37.600;2023-08-01T12:25:17;3.88;;;1.10;;
76576;SDS011;65441;44.748;37.600;2023-08-01T12:27:49;4.80;;;1.02;;
76576;SDS011;65441;44.748;37.600;2023-08-01T12:30:17;5.97;;;1.05;;
76576;SDS011;65441;44.748;37.600;2023-08-01T12:32:50;4.07;;;1.20;;
76576;SDS011;65441;44.748;37.600;2023-08-01T12:35:24;3.58;;;1.67;;
76576;SDS011;65441;44.748;37.600;2023-08-01T12:37:53;3.22;;;1.42;;
76576;SDS011;65441;44.748;37.600;2023-08-01T12:40:22;3.28;;;0.90;;
76576;SDS011;65441;44.748;37.600;2023-08-01T12:42:51;3.55;;;1.23;;
76576;SDS011;65441;44.748;37.600;2023-08-01T12:45:22;3.50;;;1.02;;
76576;SDS011;65441;44.748;37.600;2023-08-01T12:47:54;3.13;;;1.17;;
76576;SDS011;65441;44.748;37.600;2023-08-01T12:50:24;4.10;;;1.20;;
76576;SDS011;65441;44.748;37.600;2023-08-01T12:52:55;3.85;;;1.00;;
76576;SDS011;65441;44.748;37.600;2023-08-01T12:55:27;4.05;;;1.20;;
76576;SDS011;65441;44.748;37.600;2023-08-01T12:57:55;3.17;;;1.20;;
76576;SDS011;65441;44.748;37.600;2023-08-01T13:00:23;4.70;;;1.23;;
76576;SDS011;65441;44.748;37.600;2023-08-01T13:02:53;6.32;;;1.30;;
76576;SDS011;65441;44.748;37.600;2023-08-01T13:05:21;2.75;;;1.00;;
76576;SDS011;65441;44.748;37.600;2023-08-01T13:07:49;4.35;;;1.52;;
76576;SDS011;65441;44.748;37.600;2023-08-01T13:10:17;3.30;;;1.15;;
76576;SDS011;65441;44.748;37.600;2023-08-01T13:12:46;4.30;;;1.50;;
76576;SDS011;65441;44.748;37.600;2023-08-01T13:15:15;4.93;;;1.50;;
76576;SDS011;65441;44.748;37.600;2023-08-01T13:17:43;4.43;;;1.30;;
76576;SDS011;65441;44.748;37.600;2023-08-01T13:20:13;4.55;;;1.20;;
76576;SDS011;65441;44.748;37.600;2023-08-01T13:22:42;10.30;;;1.60;;
76576;SDS011;65441;44.748;37.600;2023-08-01T13:25:12;5.50;;;1.38;;
76576;SDS011;65441;44.748;37.600;2023-08-01T13:27:42;5.22;;;1.60;;
76576;SDS011;65441;44.748;37.600;2023-08-01T13:30:13;5.38;;;1.50;;
76576;SDS011;65441;44.748;37.600;2023-08-01T13:32:43;4.47;;;1.38;;
76576;SDS011;65441;44.748;37.600;2023-08-01T13:35:13;3.50;;;1.35;;
76576;SDS011;65441;44.748;37.600;2023-08-01T13:37:42;5.80;;;1.70;;
76576;SDS011;65441;44.748;37.600;2023-08-01T13:40:15;6.82;;;1.52;;
76576;SDS011;65441;44.748;37.600;2023-08-01T13:42:43;2.97;;;1.13;;
76576;SDS011;65441;44.748;37.600;2023-08-01T13:45:14;4.53;;;1.60;;
76576;SDS011;65441;44.748;37.600;2023-08-01T13:47:43;8.05;;;1.63;;
76576;SDS011;65441;44.748;37.600;2023-08-01T13:50:14;4.47;;;1.40;;
76576;SDS011;65441;44.748;37.600;2023-08-01T13:52:42;5.15;;;1.70;;
76576;SDS011;65441;44.748;37.600;2023-08-01T13:55:13;6.53;;;1.50;;
76576;SDS011;65441;44.748;37.600;2023-08-01T13:57:46;4.20;;;1.55;;
76576;SDS011;65441;44.748;37.600;2023-08-01T14:00:15;3.78;;;1.50;;
76576;SDS011;65441;44.748;37.600;2023-08-01T14:02:43;5.45;;;1.75;;
76576;SDS011;65441;44.748;37.600;2023-08-01T14:05:15;6.75;;;1.65;;
76576;SDS011;65441;44.748;37.600;2023-08-01T14:07:43;7.45;;;1.60;;
76576;SDS011;65441;44.748;37.600;2023-08-01T14:10:12;4.38;;;1.50;;
76576;SDS011;65441;44.748;37.600;2023-08-01T14:12:42;4.22;;;1.45;;
76576;SDS011;65441;44.748;37.600;2023-08-01T14:15:10;4.65;;;1.58;;
76576;SDS011;65441;44.748;37.600;2023-08-01T14:17:38;4.68;;;1.60;;
76576;SDS011;65441;44.748;37.600;2023-08-01T14:20:07;4.20;;;1.60;;
76576;SDS011;65441;44.748;37.600;2023-08-01T14:22:38;5.53;;;1.77;;
76576;SDS011;65441;44.748;37.600;2023-08-01T14:25:08;5.10;;;1.88;;
76576;SDS011;65441;44.748;37.600;2023-08-01T14:27:36;5.82;;;1.67;;
76576;SDS011;65441;44.748;37.600;2023-08-01T14:30:05;3.88;;;1.48;;
76576;SDS011;65441;44.748;37.600;2023-08-01T14:32:36;7.30;;;1.55;;
76576;SDS011;65441;44.748;37.600;2023-08-01T14:35:05;7.32;;;1.85;;
76576;SDS011;65441;44.748;37.600;2023-08-01T14:37:35;5.28;;;1.88;;
76576;SDS011;65441;44.748;37.600;2023-08-01T14:40:08;5.00;;;1.58;;
76576;SDS011;65441;44.748;37.600;2023-08-01T14:42:37;4.60;;;1.80;;
76576;SDS011;65441;44.748;37.600;2023-08-01T14:45:05;6.18;;;1.90;;
76576;SDS011;65441;44.748;37.600;2023-08-01T14:47:34;5.03;;;1.55;;
76576;SDS011;65441;44.748;37.600;2023-08-01T14:50:04;6.18;;;1.73;;
76576;SDS011;65441;44.748;37.600;2023-08-01T14:52:32;4.85;;;1.88;;
76576;SDS011;65441;44.748;37.600;2023-08-01T14:55:02;3.95;;;1.63;;
76576;SDS011;65441;44.748;37.600;2023-08-01T14:57:31;5.95;;;1.70;;